Time;durP1;ratioP1;P1;durP2;ratioP2;P2;SDS_P1;SDS_P2;PMS_P1;PMS_P2;Temp;Humidity;BMP_temperature;BMP_pressure;BME280_temperature;BME280_humidity;BME280_pressure;Samples;Min_cycle;Max_cycle;Signal;HPM_P1;HPM_P2
2022/08/18 00:00:10;;;;;;;22.73;15.18;;;;;;;21.41;76.27;99909.81;5057441;28;20032;-79
2022/08/18 00:02:37;;;;;;;17.00;14.73;;;;;;;21.37;76.29;99905.75;5040153;28;20029;-79
2022/08/18 00:05:03;;;;;;;22.73;14.40;;;;;;;21.32;76.20;99900.88;5056196;28;20114;-79
2022/08/18 00:07:31;;;;;;;16.73;13.75;;;;;;;21.27;76.13;99908.44;5056242;28;20045;-79
2022/08/18 00:10:00;;;;;;;17.63;15.23;;;;;;;21.22;76.33;99913.09;5057288;28;20469;-78
2022/08/18 00:12:29;;;;;;;19.92;14.23;;;;;;;21.18;76.15;99909.78;5056909;28;20075;-79
2022/08/18 00:14:55;;;;;;;21.83;15.10;;;;;;;21.13;75.93;99915.78;5055311;28;20029;-78
2022/08/18 00:17:21;;;;;;;19.52;13.90;;;;;;;21.10;76.08;99914.78;5056306;28;20025;-78
2022/08/18 00:19:47;;;;;;;21.52;15.23;;;;;;;21.06;76.12;99914.38;5054982;28;20033;-78
2022/08/18 00:22:16;;;;;;;20.17;13.68;;;;;;;21.03;76.16;99903.16;5054976;28;20087;-77
2022/08/18 00:24:43;;;;;;;21.05;15.05;;;;;;;21.01;76.21;99900.81;5038216;28;20025;-79
2022/08/18 00:27:09;;;;;;;18.52;14.80;;;;;;;20.99;76.73;99903.50;5054814;28;20498;-79
2022/08/18 00:29:35;;;;;;;27.38;14.57;;;;;;;20.99;76.94;99896.94;5038213;28;20021;-80
2022/08/18 00:32:17;;;;;;;21.48;15.13;;;;;;;20.98;76.80;99901.19;5055069;28;20113;-78
2022/08/18 00:34:43;;;;;;;19.20;14.85;;;;;;;20.94;76.58;99904.47;5056075;28;20029;-79
2022/08/18 00:37:08;;;;;;;18.90;14.40;;;;;;;20.93;76.72;99905.84;5054666;28;20104;-79
2022/08/18 00:39:33;;;;;;;18.73;14.93;;;;;;;20.92;77.00;99907.19;5055946;28;20025;-79
2022/08/18 00:42:30;;;;;;;17.75;14.13;;;;;;;20.91;76.92;99905.63;5054633;28;20527;-79
2022/08/18 00:45:00;;;;;;;21.00;15.27;;;;;;;20.90;77.00;99897.47;5054255;28;20037;-79
2022/08/18 00:47:28;;;;;;;21.15;14.77;;;;;;;20.90;77.57;99889.53;5037704;28;20020;-79
2022/08/18 00:49:54;;;;;;;21.80;14.90;;;;;;;20.88;77.93;99898.06;5055461;28;20165;-81
2022/08/18 00:52:21;;;;;;;20.45;15.75;;;;;;;20.88;78.30;99895.16;5055857;28;20484;-79
2022/08/18 00:54:47;;;;;;;22.00;15.18;;;;;;;20.88;78.80;99891.47;5037675;28;20429;-79
2022/08/18 00:57:14;;;;;;;17.40;15.07;;;;;;;20.85;79.03;99889.69;5054202;28;20029;-78
2022/08/18 00:59:48;;;;;;;20.42;14.40;;;;;;;20.83;79.42;99886.63;5054760;28;20033;-78
2022/08/18 01:02:19;;;;;;;18.15;14.93;;;;;;;20.80;79.33;99883.50;5054163;28;20057;-79
2022/08/18 01:04:48;;;;;;;20.02;15.35;;;;;;;20.77;79.61;99878.06;5054315;28;20103;-79
2022/08/18 01:07:19;;;;;;;19.17;14.35;;;;;;;20.71;79.99;99871.66;5053965;28;20382;-79
2022/08/18 01:09:50;;;;;;;22.77;16.38;;;;;;;20.69;80.46;99869.31;5051874;28;20021;-79
2022/08/18 01:12:15;;;;;;;19.80;15.05;;;;;;;20.64;80.87;99869.47;5051777;28;20040;-79
2022/08/18 01:14:41;;;;;;;25.63;16.40;;;;;;;20.61;80.92;99864.81;5051666;28;20020;-78
2022/08/18 01:22:46;;;;;;;17.73;15.00;;;;;;;20.51;80.89;99878.31;5051715;28;20039;-78
2022/08/18 01:27:56;;;;;;;21.48;14.82;;;;;;;20.45;81.02;99874.81;5052015;28;20124;-79
2022/08/18 01:30:24;;;;;;;17.67;14.57;;;;;;;20.40;81.39;99876.50;5052604;28;20100;-78
2022/08/18 01:32:51;;;;;;;20.88;15.25;;;;;;;20.37;81.59;99881.34;5051382;28;20086;-79
2022/08/18 01:35:17;;;;;;;22.05;16.95;;;;;;;20.29;81.69;99877.63;5052531;28;20363;-78
2022/08/18 01:37:42;;;;;;;17.85;14.05;;;;;;;20.27;82.06;99880.31;5034551;28;20035;-77
2022/08/18 01:40:10;;;;;;;20.17;15.95;;;;;;;20.24;82.00;99883.59;5051254;28;20060;-78
2022/08/18 01:42:36;;;;;;;21.00;14.90;;;;;;;20.19;82.30;99882.41;5053538;28;20479;-78
2022/08/18 01:45:06;;;;;;;21.73;14.85;;;;;;;20.14;82.68;99886.25;5053300;28;20091;-78
2022/08/18 01:47:33;;;;;;;19.40;14.88;;;;;;;20.09;82.94;99889.31;5054400;28;20458;-79
2022/08/18 01:49:59;;;;;;;17.98;14.80;;;;;;;20.06;83.03;99888.31;5054281;28;20029;-78
2022/08/18 01:52:25;;;;;;;17.77;14.45;;;;;;;20.04;82.64;99896.03;5052995;28;20046;-76
2022/08/18 01:54:50;;;;;;;20.15;15.10;;;;;;;20.03;82.59;99900.28;5054499;28;20377;-77
2022/08/18 01:57:17;;;;;;;20.63;15.88;;;;;;;20.01;82.52;99891.34;5053036;28;20035;-77
2022/08/18 01:59:43;;;;;;;20.90;14.77;;;;;;;19.99;82.98;99888.25;5053273;28;20128;-79
2022/08/18 02:02:13;;;;;;;18.40;14.95;;;;;;;19.98;82.93;99896.19;5054291;28;20060;-79
2022/08/18 02:04:39;;;;;;;18.30;15.15;;;;;;;19.96;83.15;99893.06;5052960;28;20029;-77
2022/08/18 02:07:10;;;;;;;19.38;13.65;;;;;;;19.95;83.26;99882.84;5036056;28;20031;-79
2022/08/18 02:09:36;;;;;;;21.27;15.60;;;;;;;19.91;82.99;99893.97;5054320;28;20072;-79
2022/08/18 02:12:04;;;;;;;21.40;15.65;;;;;;;19.91;83.17;99893.97;5054009;28;20037;-79
2022/08/18 02:14:29;;;;;;;20.63;15.70;;;;;;;19.87;83.43;99888.53;5036251;28;20462;-78
2022/08/18 02:16:56;;;;;;;19.27;15.35;;;;;;;19.86;84.00;99894.88;5052744;28;20028;-79
2022/08/18 02:19:21;;;;;;;21.05;15.20;;;;;;;19.85;83.69;99893.34;5053618;28;20477;-80
2022/08/18 02:21:47;;;;;;;23.00;15.57;;;;;;;19.82;83.65;99895.25;5053951;28;20086;-78
2022/08/18 02:24:12;;;;;;;22.08;14.88;;;;;;;19.79;83.75;99893.50;5052775;28;20355;-79
2022/08/18 02:26:38;;;;;;;21.80;14.90;;;;;;;19.78;83.67;99894.06;5052678;28;20079;-80
2022/08/18 02:29:03;;;;;;;16.88;14.27;;;;;;;19.77;83.68;99892.50;5052576;28;20107;-78
2022/08/18 02:31:29;;;;;;;21.40;16.02;;;;;;;19.74;83.58;99877.03;5052608;28;20025;-78
2022/08/18 02:33:55;;;;;;;18.48;14.02;;;;;;;19.74;83.26;99884.94;5052362;28;20025;-80
2022/08/18 02:36:21;;;;;;;17.00;14.75;;;;;;;19.69;83.16;99880.84;5053964;28;20037;-78
2022/08/18 02:38:46;;;;;;;17.33;13.98;;;;;;;19.71;82.94;99880.28;5053510;28;20028;-78
2022/08/18 02:41:13;;;;;;;24.90;15.70;;;;;;;19.69;83.13;99880.06;5053666;28;20063;-79
2022/08/18 02:43:40;;;;;;;21.98;15.02;;;;;;;19.68;83.18;99866.91;5053679;28;20496;-78
2022/08/18 02:46:05;;;;;;;19.50;14.82;;;;;;;19.65;82.70;99876.75;5052289;28;20355;-79
2022/08/18 02:48:35;;;;;;;19.08;14.25;;;;;;;19.63;83.09;99873.63;5052166;28;20035;-79
2022/08/18 02:51:14;;;;;;;18.95;14.52;;;;;;;19.60;82.43;99878.47;5036048;28;20024;-78
2022/08/18 02:53:41;;;;;;;17.58;15.35;;;;;;;19.57;82.70;99876.69;5052299;28;20036;-78
2022/08/18 02:56:26;;;;;;;19.23;13.98;;;;;;;19.56;82.82;99880.16;5035684;28;20033;-78
2022/08/18 02:59:03;;;;;;;17.83;14.43;;;;;;;19.56;82.68;99891.75;5036687;28;20025;-78
2022/08/18 03:01:31;;;;;;;20.35;15.50;;;;;;;19.55;82.87;99885.19;5052563;28;20032;-79
2022/08/18 03:03:58;;;;;;;17.92;14.93;;;;;;;19.53;83.01;99882.84;5052714;28;20035;-78
2022/08/18 03:06:25;;;;;;;18.48;15.18;;;;;;;19.53;83.16;99890.75;5054701;28;20025;-78
2022/08/18 03:08:53;;;;;;;18.20;15.38;;;;;;;19.54;83.66;99893.09;5053923;28;20059;-78
2022/08/18 03:11:21;;;;;;;20.88;15.27;;;;;;;19.53;83.32;99890.75;5054028;28;20535;-78
2022/08/18 03:13:47;;;;;;;17.75;15.13;;;;;;;19.51;83.33;99884.78;5052700;28;20393;-78
2022/08/18 03:16:14;;;;;;;22.13;16.13;;;;;;;19.48;83.79;99880.09;5053444;28;20486;-79
2022/08/18 03:18:41;;;;;;;19.30;15.25;;;;;;;19.45;84.30;99881.22;5035982;28;20025;-80
2022/08/18 03:21:28;;;;;;;20.45;15.90;;;;;;;19.43;84.94;99876.00;5035699;28;20116;-80
2022/08/18 03:23:55;;;;;;;22.05;15.50;;;;;;;19.40;85.25;99876.34;5055858;28;20378;-79
2022/08/18 03:26:22;;;;;;;20.25;16.42;;;;;;;19.35;85.78;99883.06;5057408;28;20087;-79
2022/08/18 03:28:50;;;;;;;17.27;14.95;;;;;;;19.30;85.59;99884.75;5057342;28;20111;-78
2022/08/18 03:31:17;;;;;;;21.15;16.83;;;;;;;19.27;86.14;99885.88;5055762;28;20036;-78
2022/08/18 03:33:43;;;;;;;19.80;15.73;;;;;;;19.22;86.26;99878.09;5055808;28;20456;-78
2022/08/18 03:36:11;;;;;;;18.58;15.85;;;;;;;19.20;86.55;99897.41;5055909;28;20021;-77
2022/08/18 03:38:37;;;;;;;19.52;16.33;;;;;;;19.17;85.93;99884.81;5039266;28;20056;-78
2022/08/18 03:41:05;;;;;;;21.15;15.93;;;;;;;19.19;86.27;99899.50;5055486;28;20107;-79
2022/08/18 03:43:30;;;;;;;20.67;15.77;;;;;;;19.20;86.35;99903.19;5055843;28;20021;-79
2022/08/18 03:46:05;;;;;;;20.63;15.30;;;;;;;19.17;86.25;99899.28;5039396;28;20044;-79
2022/08/18 03:48:32;;;;;;;21.45;15.80;;;;;;;19.13;86.41;99904.63;5055796;28;20032;-78
2022/08/18 03:51:06;;;;;;;21.00;15.95;;;;;;;19.11;86.22;99907.31;5055484;28;20044;-77
2022/08/18 03:53:33;;;;;;;19.27;15.43;;;;;;;19.08;86.48;99909.22;5056872;28;20021;-80
2022/08/18 03:55:59;;;;;;;25.50;16.77;;;;;;;19.15;86.46;99907.00;5056963;28;20052;-78
2022/08/18 03:58:25;;;;;;;21.67;16.17;;;;;;;19.19;86.05;99919.00;5057019;28;20025;-78
2022/08/18 04:00:51;;;;;;;20.73;16.70;;;;;;;19.20;86.62;99924.25;5056758;28;20025;-78
2022/08/18 04:03:16;;;;;;;22.00;16.80;;;;;;;19.23;87.10;99925.22;5055686;28;20029;-78
2022/08/18 04:05:42;;;;;;;20.17;16.35;;;;;;;19.25;87.00;99932.03;5057286;28;20032;-79
2022/08/18 04:08:07;;;;;;;21.67;16.65;;;;;;;19.24;86.74;99926.78;5038679;28;20044;-79
2022/08/18 04:10:34;;;;;;;20.10;16.80;;;;;;;19.34;86.21;99928.66;5038761;28;20098;-78
2022/08/18 04:13:00;;;;;;;20.65;16.92;;;;;;;19.38;86.00;99926.16;5055140;28;20025;-79
2022/08/18 04:15:25;;;;;;;20.63;15.70;;;;;;;19.44;86.09;99929.72;5038640;28;20021;-78
2022/08/18 04:17:51;;;;;;;24.45;18.40;;;;;;;19.52;85.77;99930.56;5056571;28;20575;-80
2022/08/18 04:20:19;;;;;;;19.60;15.85;;;;;;;19.58;85.84;99932.53;5056204;28;20432;-78
2022/08/18 04:22:45;;;;;;;20.95;16.85;;;;;;;19.62;85.33;99938.75;5057383;28;20473;-81
2022/08/18 04:25:13;;;;;;;20.65;16.73;;;;;;;19.66;85.20;99924.72;5055609;28;20393;-82
2022/08/18 04:27:41;;;;;;;21.20;17.20;;;;;;;19.72;85.10;99922.41;5038590;28;20384;-81
2022/08/18 04:30:07;;;;;;;22.15;16.48;;;;;;;19.73;84.81;99912.38;5022658;28;20558;-81
2022/08/18 04:32:40;;;;;;;21.20;16.73;;;;;;;19.76;84.64;99917.81;5055027;28;20027;-80
2022/08/18 04:35:06;;;;;;;;;;;;;;;19.82;84.21;99924.25;5037336;28;20440;-80
2022/08/18 04:37:31;;;;;;;19.20;16.10;;;;;;;19.90;84.06;99928.00;5054756;28;19912;-80
2022/08/18 04:39:58;;;;;;;26.02;16.90;;;;;;;19.98;84.33;99925.19;5056022;28;20025;-80
2022/08/18 04:42:24;;;;;;;20.58;16.50;;;;;;;20.07;83.72;99918.09;5038250;28;20094;-81
2022/08/18 04:44:51;;;;;;;24.90;16.65;;;;;;;20.21;83.20;99926.13;5054602;28;20124;-82
2022/08/18 04:47:19;;;;;;;22.83;15.57;;;;;;;20.29;82.53;99929.09;5055288;28;20033;-81
2022/08/18 04:49:49;;;;;;;23.75;19.08;;;;;;;20.30;82.34;99930.66;5055462;28;20384;-80
2022/08/18 04:55:01;;;;;;;23.17;17.20;;;;;;;20.53;81.57;99927.88;5054454;28;20452;-80
2022/08/18 04:57:30;;;;;;;23.67;16.02;;;;;;;20.69;80.80;99929.53;5054708;28;20021;-81
2022/08/18 04:59:57;;;;;;;20.77;17.25;;;;;;;20.86;80.44;99926.91;5054065;28;20074;-81
2022/08/18 05:02:32;;;;;;;27.30;16.65;;;;;;;20.98;79.84;99933.94;5054566;28;20036;-82
2022/08/18 05:05:10;;;;;;;27.10;16.85;;;;;;;21.13;79.43;99936.13;5055412;28;20410;-82
2022/08/18 05:07:43;;;;;;;21.58;16.77;;;;;;;21.27;78.46;99937.50;5052887;28;20072;-82
2022/08/18 05:10:11;;;;;;;20.40;16.13;;;;;;;21.39;78.23;99921.25;5053980;28;20068;-83
2022/08/18 05:12:41;;;;;;;24.88;18.08;;;;;;;21.51;77.31;99921.69;5037571;28;20057;-80
2022/08/18 05:15:08;;;;;;;24.02;16.88;;;;;;;21.53;77.06;99924.81;5054241;28;20104;-80
2022/08/18 05:17:38;;;;;;;24.33;17.83;;;;;;;21.59;76.83;99922.47;5055211;28;20043;-81
2022/08/18 05:20:06;;;;;;;22.15;17.65;;;;;;;21.62;76.83;99927.91;5055088;28;20029;-81
2022/08/18 05:22:51;;;;;;;26.67;18.00;;;;;;;21.71;76.72;99923.66;5054943;28;20052;-79
2022/08/18 05:25:17;;;;;;;22.23;16.80;;;;;;;21.84;76.32;99923.44;5053581;28;20036;-80
2022/08/18 05:27:45;;;;;;;22.67;18.40;;;;;;;21.99;76.11;99923.44;5036837;28;20060;-79
2022/08/18 05:30:14;;;;;;;23.83;18.52;;;;;;;22.18;75.22;99933.94;5037303;28;20542;-79
2022/08/18 05:32:42;;;;;;;23.83;17.95;;;;;;;22.33;75.03;99945.56;5020928;28;20037;-77
2022/08/18 05:35:22;;;;;;;24.88;17.90;;;;;;;22.51;74.96;99941.47;5020643;28;20083;-78
2022/08/18 05:38:24;;;;;;;24.35;17.50;;;;;;;22.72;73.96;99949.94;5048292;28;20036;-78
2022/08/18 05:41:19;;;;;;;;;;;;;;;22.88;73.00;99954.38;5074757;28;20449;-76
2022/08/18 05:43:46;;;;;;;32.50;18.95;;;;;;;23.13;72.07;99957.38;5072998;28;19976;-82
2022/08/18 05:46:11;;;;;;;26.77;19.67;;;;;;;23.25;70.98;99952.69;5070655;28;20028;-81
2022/08/18 05:48:37;;;;;;;24.38;18.58;;;;;;;23.46;70.94;99953.13;5055910;28;20035;-80
2022/08/18 05:51:10;;;;;;;23.77;20.02;;;;;;;23.78;69.93;99955.28;5072088;28;20024;-81
2022/08/18 05:59:09;;;;;;;29.88;18.00;;;;;;;24.70;67.10;99947.22;5073596;28;20105;-82
2022/08/18 06:01:40;;;;;;;31.52;19.38;;;;;;;25.05;65.80;99948.00;5069002;28;20421;-80
2022/08/18 06:04:44;;;;;;;29.70;19.42;;;;;;;25.39;64.71;99945.00;5052235;28;20025;-81
2022/08/18 06:07:13;;;;;;;22.40;18.48;;;;;;;25.75;63.73;99944.31;5069086;28;20103;-79
2022/08/18 06:09:47;;;;;;;24.08;18.80;;;;;;;26.00;62.23;99946.25;5072626;28;20104;-77
2022/08/18 06:12:34;;;;;;;25.38;17.50;;;;;;;26.17;61.78;99935.22;5055963;28;20058;-79
2022/08/18 06:15:09;;;;;;;29.45;17.77;;;;;;;26.40;61.83;99940.69;5072471;28;20036;-79
2022/08/18 06:17:47;;;;;;;32.47;19.05;;;;;;;26.61;60.69;99940.91;5072797;28;20016;-83
2022/08/18 06:20:15;;;;;;;21.70;18.70;;;;;;;26.74;59.60;99942.63;5074571;28;20021;-82
2022/08/18 06:23:07;;;;;;;34.22;19.98;;;;;;;26.90;58.16;99934.28;5063483;28;20032;-79
2022/08/18 06:26:09;;;;;;;27.15;18.17;;;;;;;27.01;58.08;99927.81;5056469;28;20038;-79
2022/08/18 06:29:02;;;;;;;24.55;18.38;;;;;;;27.18;57.86;99933.47;5060714;28;20025;-79
2022/08/18 06:31:46;;;;;;;21.50;18.33;;;;;;;27.17;56.73;99932.72;5057910;28;20023;-82
2022/08/18 06:34:25;;;;;;;29.48;18.38;;;;;;;27.18;56.02;99925.44;5052393;28;20115;-81
2022/08/18 06:36:56;;;;;;;21.77;19.10;;;;;;;27.31;56.17;99938.09;5038716;28;20029;-79
2022/08/18 06:39:22;;;;;;;;;;;;;;;27.71;56.18;99932.28;5062986;28;20102;-77
2022/08/18 06:41:49;;;;;;;22.85;17.30;;;;;;;29.18;52.46;99935.28;5053452;28;19908;-75
2022/08/18 06:44:44;;;;;;;18.70;16.60;;;;;;;31.71;47.20;99925.19;5052104;28;20029;-74
2022/08/18 06:47:14;;;;;;;21.88;16.65;;;;;;;34.11;42.27;99927.28;5053399;28;20468;-78
2022/08/18 06:49:59;;;;;;;25.48;18.00;;;;;;;36.33;37.28;99923.34;5052980;28;20021;-76
2022/08/18 06:52:32;;;;;;;25.90;16.70;;;;;;;37.89;35.12;99938.47;5051165;28;20043;-74
2022/08/18 06:55:02;;;;;;;24.98;17.90;;;;;;;39.15;31.41;99945.13;5052351;28;20021;-76
2022/08/18 06:57:40;;;;;;;27.23;17.20;;;;;;;40.19;29.51;99952.13;5052920;28;20039;-76
2022/08/18 07:00:06;;;;;;;18.48;14.70;;;;;;;41.18;27.77;99945.19;5052115;28;20524;-76
2022/08/18 07:02:50;;;;;;;17.50;15.38;;;;;;;42.19;26.94;99943.03;5053148;28;20473;-80
2022/08/18 07:05:19;;;;;;;18.55;16.58;;;;;;;43.08;25.30;99953.91;5052290;28;20036;-79
2022/08/18 07:07:46;;;;;;;18.98;16.30;;;;;;;43.87;25.24;99947.78;5053725;28;20557;-80
2022/08/18 07:10:14;;;;;;;22.98;17.20;;;;;;;44.63;23.65;99947.41;5052745;28;20031;-81
2022/08/18 07:12:40;;;;;;;19.40;16.95;;;;;;;44.94;22.32;99951.28;5054357;28;20382;-78
2022/08/18 07:15:06;;;;;;;18.05;15.75;;;;;;;45.31;22.47;99954.38;5051928;28;20469;-79
2022/08/18 07:17:40;;;;;;;18.88;14.82;;;;;;;45.87;22.06;99945.25;5052100;28;20056;-78
2022/08/18 07:20:09;;;;;;;18.10;15.38;;;;;;;46.45;21.38;99952.69;5035343;28;20478;-77
2022/08/18 07:22:58;;;;;;;18.88;15.82;;;;;;;47.14;19.91;99967.44;5052105;28;20035;-79
2022/08/18 07:25:44;;;;;;;21.85;16.52;;;;;;;47.40;19.06;99973.31;5051712;28;20545;-79
2022/08/18 07:28:49;;;;;;;19.88;15.90;;;;;;;47.46;19.61;99966.44;5035029;28;20021;-77
2022/08/18 07:31:50;;;;;;;17.73;16.02;;;;;;;47.31;19.09;99950.63;5045851;28;20033;-78
2022/08/18 07:34:26;;;;;;;17.52;14.90;;;;;;;47.60;19.29;99945.09;5049083;28;20429;-79
2022/08/18 07:37:06;;;;;;;18.50;14.52;;;;;;;47.86;18.36;99950.16;5053917;28;20017;-79
2022/08/18 07:39:49;;;;;;;22.53;16.30;;;;;;;48.61;19.17;99952.31;5055245;28;20084;-81
2022/08/18 07:42:22;;;;;;;15.38;13.80;;;;;;;48.79;18.46;99958.16;5055530;28;20040;-79
2022/08/18 07:45:05;;;;;;;18.50;14.63;;;;;;;48.41;17.35;99959.41;5037261;28;20032;-79
2022/08/18 07:47:40;;;;;;;16.45;14.50;;;;;;;47.72;18.03;99948.78;5053640;28;20021;-82
2022/08/18 07:50:06;;;;;;;16.33;14.82;;;;;;;48.08;18.89;99944.63;5052023;28;20021;-81
2022/08/18 07:52:37;;;;;;;21.27;15.95;;;;;;;48.64;19.17;99950.75;5052530;28;20100;-77
2022/08/18 07:55:05;;;;;;;23.10;14.80;;;;;;;48.76;17.67;99962.72;5035131;28;20032;-77
2022/08/18 07:57:42;;;;;;;19.67;14.48;;;;;;;48.81;17.66;99970.28;5054524;28;20021;-81
2022/08/18 08:00:22;;;;;;;17.08;13.98;;;;;;;48.45;17.88;99974.53;5036854;28;20049;-80
2022/08/18 08:02:51;;;;;;;16.00;13.98;;;;;;;48.50;17.50;99957.78;5054385;28;20025;-79
2022/08/18 08:05:24;;;;;;;14.60;13.25;;;;;;;47.98;18.01;99962.94;5053915;28;20037;-80
2022/08/18 08:07:55;;;;;;;16.83;12.98;;;;;;;47.50;18.58;99964.13;5036326;28;20049;-80
2022/08/18 08:10:30;;;;;;;18.17;14.52;;;;;;;47.74;18.83;99954.06;5055111;28;20082;-76
2022/08/18 08:13:14;;;;;;;16.73;15.00;;;;;;;48.02;18.54;99950.00;5055196;28;20025;-78
2022/08/18 08:15:59;;;;;;;18.10;13.82;;;;;;;47.53;18.20;99944.44;5055006;28;20067;-80
2022/08/18 08:18:34;;;;;;;17.38;14.18;;;;;;;47.41;19.33;99947.56;5036149;28;20098;-78
2022/08/18 08:21:13;;;;;;;18.98;13.88;;;;;;;47.68;19.30;99942.75;5052638;28;20029;-79
2022/08/18 08:23:57;;;;;;;18.50;13.52;;;;;;;47.89;18.40;99961.50;5052915;28;20028;-77
2022/08/18 08:26:51;;;;;;;18.17;12.95;;;;;;;47.73;18.49;99955.59;5074052;28;20032;-77
2022/08/18 08:29:23;;;;;;;15.93;12.43;;;;;;;47.30;18.18;99952.91;5066016;28;20056;-78
2022/08/18 08:32:01;;;;;;;16.40;12.52;;;;;;;47.23;19.48;99956.78;5072985;28;20230;-78
2022/08/18 08:34:52;;;;;;;16.20;12.93;;;;;;;47.38;19.43;99961.19;5072243;28;20120;-78
2022/08/18 08:37:34;;;;;;;15.32;12.00;;;;;;;47.62;19.32;99964.03;5071715;28;20028;-78
2022/08/18 08:40:07;;;;;;;13.93;11.73;;;;;;;47.16;18.80;99968.19;5072255;28;20020;-77
2022/08/18 08:43:15;;;;;;;13.82;11.73;;;;;;;46.56;18.55;99962.44;5055468;28;20081;-78
2022/08/18 08:45:59;;;;;;;15.68;12.55;;;;;;;46.09;19.21;99965.66;5050803;28;20049;-78
2022/08/18 08:48:28;;;;;;;15.60;12.35;;;;;;;45.70;19.73;99952.88;5035344;28;20090;-77
2022/08/18 08:51:02;;;;;;;16.52;11.43;;;;;;;45.70;20.49;99958.16;5059976;28;20135;-78
2022/08/18 08:53:34;;;;;;;16.33;11.43;;;;;;;45.20;20.73;99954.34;5057803;28;20099;-79
2022/08/18 08:56:05;;;;;;;15.70;12.07;;;;;;;44.66;21.13;99954.22;5057743;28;20020;-77
2022/08/18 08:59:12;;;;;;;17.58;11.35;;;;;;;44.26;21.44;99951.78;5075462;28;20115;-77
2022/08/18 09:02:10;;;;;;;11.88;10.57;;;;;;;43.90;21.07;99946.28;5053416;28;20040;-78
2022/08/18 09:05:18;;;;;;;12.70;10.95;;;;;;;43.68;21.79;99937.84;5035873;28;20417;-77
2022/08/18 09:07:55;;;;;;;13.30;11.57;;;;;;;43.59;22.32;99938.53;5065407;28;20051;-77
2022/08/18 09:10:33;;;;;;;14.20;11.07;;;;;;;43.08;22.08;99941.09;5075016;28;20082;-76
2022/08/18 09:13:17;;;;;;;19.80;11.00;;;;;;;42.56;23.33;99935.22;5073181;28;20024;-77
2022/08/18 09:16:14;;;;;;;19.10;11.90;;;;;;;41.96;22.91;99932.19;5073946;28;20087;-76
2022/08/18 09:18:48;;;;;;;15.50;10.60;;;;;;;41.74;24.36;99921.34;5065074;28;20059;-76
2022/08/18 09:21:29;;;;;;;13.85;11.18;;;;;;;41.41;23.45;99917.06;5073336;28;20032;-76
2022/08/18 09:24:31;;;;;;;17.55;11.23;;;;;;;40.95;24.61;99910.25;5075237;28;20461;-77
2022/08/18 09:27:03;;;;;;;20.25;11.90;;;;;;;40.78;25.10;99912.19;5070238;28;20127;-77
2022/08/18 09:29:37;;;;;;;15.25;10.73;;;;;;;40.47;24.77;99907.06;5074867;28;20032;-77
2022/08/18 09:32:21;;;;;;;13.10;10.93;;;;;;;40.40;25.25;99905.44;5073328;28;20101;-76
2022/08/18 09:35:10;;;;;;;17.20;11.43;;;;;;;40.13;25.10;99907.09;5074508;28;20034;-77
2022/08/18 09:37:38;;;;;;;12.95;10.40;;;;;;;39.78;25.53;99905.56;5074597;28;20034;-76
2022/08/18 09:43:25;;;;;;;12.63;11.32;;;;;;;39.39;25.86;99889.69;5073327;28;20043;-77
2022/08/18 09:45:59;;;;;;;12.50;11.20;;;;;;;39.11;26.30;99874.00;5073105;28;20374;-76
2022/08/18 09:48:31;;;;;;;14.23;11.63;;;;;;;38.95;27.69;99889.28;5074411;28;20025;-76
2022/08/18 09:51:09;;;;;;;25.30;12.25;;;;;;;38.64;27.90;99877.25;5056665;28;20031;-77
2022/08/18 09:53:51;;;;;;;32.13;12.35;;;;;;;38.06;27.18;99877.78;5072836;28;20031;-77
2022/08/18 09:56:48;;;;;;;14.88;10.57;;;;;;;37.45;28.26;99868.44;5073351;28;20044;-77
2022/08/18 09:59:32;;;;;;;21.23;11.95;;;;;;;36.95;28.66;99856.34;5073998;28;20036;-77
2022/08/18 10:02:02;;;;;;;14.50;10.80;;;;;;;36.63;29.48;99849.25;5074150;28;20032;-76
2022/08/18 10:04:47;;;;;;;12.10;10.90;;;;;;;36.65;30.24;99831.44;5072884;28;20111;-76
2022/08/18 10:07:34;;;;;;;13.70;9.88;;;;;;;36.27;29.49;99837.53;5057191;28;20051;-79
2022/08/18 10:10:24;;;;;;;16.83;10.38;;;;;;;35.91;30.02;99839.91;5074086;28;20101;-77
2022/08/18 10:12:54;;;;;;;21.35;10.73;;;;;;;35.78;30.95;99831.97;5074264;28;20032;-77
2022/08/18 10:15:34;;;;;;;13.32;9.45;;;;;;;35.81;31.00;99826.84;5074082;28;20024;-76
2022/08/18 10:18:21;;;;;;;16.98;9.35;;;;;;;35.65;30.57;99815.09;5072576;28;20067;-75
2022/08/18 10:21:02;;;;;;;11.50;9.32;;;;;;;35.40;30.62;99800.72;5072296;28;20029;-75
2022/08/18 10:23:47;;;;;;;11.27;8.60;;;;;;;35.14;30.18;99795.25;5072760;28;20083;-76
2022/08/18 10:26:42;;;;;;;15.15;10.05;;;;;;;34.99;31.66;99813.94;5073264;28;20024;-78
2022/08/18 10:29:10;;;;;;;13.05;9.73;;;;;;;34.91;32.30;99801.69;5054313;28;20041;-79
2022/08/18 10:31:54;;;;;;;22.88;9.68;;;;;;;34.75;30.87;99801.81;5076868;28;20032;-77
2022/08/18 10:34:41;;;;;;;14.27;9.02;;;;;;;34.69;30.30;99800.78;5075303;28;20119;-78
2022/08/18 10:37:15;;;;;;;13.27;9.32;;;;;;;34.75;30.67;99801.81;5073712;28;20457;-77
2022/08/18 10:39:41;;;;;;;19.02;10.45;;;;;;;34.73;30.86;99812.81;5073678;28;20040;-76
2022/08/18 10:42:11;;;;;;;12.60;9.45;;;;;;;34.58;30.38;99816.59;5073632;28;20028;-77
2022/08/18 10:44:41;;;;;;;12.95;8.95;;;;;;;34.38;31.29;99813.53;5072560;28;20054;-77
2022/08/18 10:47:08;;;;;;;13.83;8.73;;;;;;;34.32;31.78;99796.22;5072794;28;20020;-76
2022/08/18 10:49:35;;;;;;;11.30;8.00;;;;;;;34.29;31.01;99800.53;5072393;28;20027;-78
2022/08/18 10:52:22;;;;;;;18.25;9.82;;;;;;;34.29;30.64;99802.75;5073484;28;20059;-75
2022/08/18 10:54:59;;;;;;;11.00;7.63;;;;;;;34.15;30.57;99799.91;5072206;28;20028;-76
2022/08/18 10:57:56;;;;;;;17.48;8.95;;;;;;;34.06;31.00;99803.19;5073987;28;20028;-77
2022/08/18 11:00:35;;;;;;;9.75;7.68;;;;;;;34.04;29.78;99803.84;5070321;28;20508;-76
2022/08/18 11:03:15;;;;;;;18.02;8.45;;;;;;;33.92;30.59;99798.13;5071180;28;20028;-75
2022/08/18 11:05:41;;;;;;;13.02;8.77;;;;;;;33.84;30.73;99791.81;5072150;28;20103;-78
2022/08/18 11:08:13;;;;;;;9.88;6.97;;;;;;;33.59;30.68;99795.06;5072078;28;20052;-77
2022/08/18 11:10:47;;;;;;;8.90;8.00;;;;;;;33.38;30.42;99795.56;5072767;28;20063;-79
2022/08/18 11:13:47;;;;;;;8.90;8.10;;;;;;;33.36;30.80;99793.28;5074041;28;20035;-79
2022/08/18 11:16:15;;;;;;;9.88;8.40;;;;;;;33.37;31.27;99797.00;5074132;28;20035;-80
2022/08/18 11:18:43;;;;;;;8.90;7.55;;;;;;;33.30;30.69;99804.06;5072260;28;20123;-78
2022/08/18 11:21:31;;;;;;;16.20;8.20;;;;;;;33.24;30.03;99801.56;5072643;28;20024;-79
2022/08/18 11:24:02;;;;;;;11.40;8.55;;;;;;;33.07;31.24;99802.97;5073604;28;20035;-79
2022/08/18 11:26:33;;;;;;;10.57;9.02;;;;;;;32.96;31.60;99795.03;5072151;28;20534;-79
2022/08/18 11:29:00;;;;;;;13.73;9.07;;;;;;;32.82;32.43;99790.59;5056591;28;20036;-77
2022/08/18 11:31:26;;;;;;;12.50;9.70;;;;;;;32.86;32.43;99797.47;5072434;28;20480;-78
2022/08/18 11:33:52;;;;;;;15.27;8.90;;;;;;;33.02;34.25;99779.75;5071948;28;20028;-79
2022/08/18 11:36:28;;;;;;;8.93;6.90;;;;;;;33.10;29.72;99786.06;5055239;28;20029;-77
2022/08/18 11:38:54;;;;;;;10.48;7.40;;;;;;;33.19;30.20;99781.31;5072028;28;20035;-77
2022/08/18 11:41:25;;;;;;;9.68;8.68;;;;;;;33.21;30.64;99781.41;5072071;28;20024;-78
2022/08/18 11:44:02;;;;;;;11.77;8.68;;;;;;;33.21;30.94;99775.50;5073219;28;20024;-77
2022/08/18 11:46:31;;;;;;;11.40;8.32;;;;;;;33.24;31.10;99771.94;5078429;28;20032;-79
2022/08/18 11:48:58;;;;;;;9.90;8.93;;;;;;;33.32;31.64;99775.31;5079343;28;20035;-80
2022/08/18 11:51:27;;;;;;;19.17;10.48;;;;;;;33.25;32.89;99775.69;5076977;28;20027;-76
2022/08/18 11:54:03;;;;;;;10.30;9.30;;;;;;;33.18;32.55;99779.81;5077901;28;20474;-81
2022/08/18 11:56:32;;;;;;;13.80;11.55;;;;;;;33.19;32.71;99778.34;5060927;28;20052;-79
2022/08/18 11:59:06;;;;;;;12.25;10.43;;;;;;;33.21;33.59;99764.41;5059955;28;20028;-80
2022/08/18 12:01:48;;;;;;;11.30;10.20;;;;;;;33.27;33.41;99763.94;5077728;28;20112;-80
2022/08/18 12:04:13;;;;;;;12.95;10.23;;;;;;;33.15;33.75;99766.28;5077697;28;20377;-80
2022/08/18 12:06:59;;;;;;;13.38;11.10;;;;;;;33.21;33.63;99770.34;5076606;28;20028;-77